Time;durP1;ratioP1;P1;durP2;ratioP2;P2;SDS_P1;SDS_P2;PMS_P1;PMS_P2;Temp;Humidity;BMP_temperature;BMP_pressure;BME280_temperature;BME280_humidity;BME280_pressure;Samples;Min_cycle;Max_cycle;Signal;HPM_P1;HPM_P2
2024/01/21 00:01:15;;;;;;;18.70;8.95;;;;;;;-142.57;63.64;55309.06;5054322;28;20170;-79
2024/01/21 00:03:41;;;;;;;21.55;10.07;;;;;;;-142.57;65.52;55313.09;5054439;28;20486;-79
2024/01/21 00:06:07;;;;;;;20.67;8.20;;;;;;;-142.57;66.68;55274.72;5054338;28;20393;-80
2024/01/21 00:08:33;;;;;;;14.45;7.13;;;;;;;-142.57;68.27;55268.66;5053433;28;20033;-79
2024/01/21 00:10:58;;;;;;;13.27;6.80;;;;;;;-142.57;68.95;55284.81;5053605;28;20113;-79
2024/01/21 00:13:24;;;;;;;13.65;7.38;;;;;;;-142.57;69.64;55280.78;5053798;28;20398;-78
2024/01/21 00:15:49;;;;;;;16.38;6.68;;;;;;;-142.57;68.85;55268.66;5053682;28;20041;-80
2024/01/21 00:18:16;;;;;;;15.07;5.95;;;;;;;-142.57;69.37;55254.50;5052898;28;20036;-79
2024/01/21 00:20:42;;;;;;;12.85;6.40;;;;;;;-142.57;70.45;55244.41;5053252;28;20095;-79
2024/01/21 00:23:08;;;;;;;18.10;6.55;;;;;;;-142.57;71.81;55248.47;5052184;28;20033;-79
2024/01/21 00:25:34;;;;;;;14.68;6.82;;;;;;;-142.57;70.84;55280.78;5052098;28;20036;-79
2024/01/21 00:27:59;;;;;;;13.10;6.68;;;;;;;-142.57;70.89;55236.34;5053219;28;20037;-81
2024/01/21 00:30:25;;;;;;;10.57;5.35;;;;;;;-142.57;71.53;55236.34;5053175;28;20037;-78
2024/01/21 00:32:50;;;;;;;14.93;6.50;;;;;;;-142.57;71.76;55236.34;5053082;28;20029;-79
2024/01/21 00:35:16;;;;;;;17.85;6.53;;;;;;;-142.57;71.73;55252.50;5051844;28;20060;-79
2024/01/21 00:37:41;;;;;;;13.63;6.30;;;;;;;-142.57;70.79;55274.72;5052031;28;20118;-79
2024/01/21 00:40:10;;;;;;;8.25;4.32;;;;;;;-142.57;68.90;55305.03;5053738;28;20099;-81
2024/01/21 00:42:36;;;;;;;16.35;5.28;;;;;;;-142.57;67.48;55294.94;5053010;28;20056;-79
2024/01/21 00:45:04;;;;;;;11.77;5.03;;;;;;;-142.57;67.54;55268.66;5052960;28;20112;-79
2024/01/21 00:47:30;;;;;;;13.32;5.18;;;;;;;-142.57;69.12;55260.56;5053091;28;20120;-79
2024/01/21 00:49:56;;;;;;;12.05;4.97;;;;;;;-142.57;69.55;55270.69;5052193;28;20442;-81
2024/01/21 00:52:22;;;;;;;10.68;4.47;;;;;;;-142.57;68.26;55292.91;5052900;28;20115;-80
2024/01/21 00:54:50;;;;;;;11.48;4.45;;;;;;;-142.57;66.62;55236.34;5052761;28;20036;-79
2024/01/21 00:57:16;;;;;;;9.65;4.40;;;;;;;-142.57;65.41;55274.72;5051761;28;20569;-79
2024/01/21 00:59:42;;;;;;;8.20;3.47;;;;;;;-142.57;63.96;55250.47;5053248;28;20040;-79
2024/01/21 01:02:08;;;;;;;12.07;3.92;;;;;;;-142.57;62.29;55284.81;5052738;28;20057;-79
2024/01/21 01:04:33;;;;;;;8.75;3.60;;;;;;;-142.57;61.38;55264.63;5052947;28;20107;-79
2024/01/21 01:06:59;;;;;;;5.95;3.00;;;;;;;-142.57;62.75;55254.50;5051534;28;20069;-79
2024/01/21 01:09:24;;;;;;;9.75;2.78;;;;;;;-142.57;60.76;55282.81;5052898;28;20048;-79
2024/01/21 01:11:50;;;;;;;4.55;2.45;;;;;;;-142.57;61.01;55256.53;5052245;28;20037;-78
2024/01/21 01:14:15;;;;;;;7.78;2.30;;;;;;;-142.57;60.21;55266.63;5052371;28;20033;-78
2024/01/21 01:16:41;;;;;;;10.18;2.97;;;;;;;-142.57;60.36;55252.50;5052533;28;20060;-79
2024/01/21 01:19:07;;;;;;;4.95;2.20;;;;;;;-142.57;61.53;55256.53;5052645;28;20025;-78
2024/01/21 01:21:33;;;;;;;5.32;2.30;;;;;;;-142.57;60.82;55264.63;5051858;28;20029;-80
2024/01/21 01:23:59;;;;;;;7.90;2.55;;;;;;;-142.57;59.38;55252.50;5052008;28;20033;-78
2024/01/21 01:26:24;;;;;;;4.38;2.50;;;;;;;-142.57;58.97;55264.63;5052196;28;20033;-79
2024/01/21 01:28:52;;;;;;;5.22;2.20;;;;;;;-142.57;59.25;55313.09;5051524;28;20401;-79
2024/01/21 01:31:18;;;;;;;8.30;2.75;;;;;;;-142.57;58.90;55305.03;5052282;28;20351;-79
2024/01/21 01:33:44;;;;;;;5.20;2.60;;;;;;;-142.57;58.88;55290.88;5034613;28;20017;-77
2024/01/21 01:36:10;;;;;;;5.03;2.67;;;;;;;-142.57;59.73;55280.78;5052444;28;20041;-79
2024/01/21 01:38:36;;;;;;;8.75;2.95;;;;;;;-142.57;61.80;55252.50;5051043;28;20123;-78
2024/01/21 01:41:02;;;;;;;6.55;2.55;;;;;;;-142.57;61.35;55262.59;5052737;28;20561;-79
2024/01/21 01:43:27;;;;;;;6.43;2.38;;;;;;;-142.57;60.30;55272.69;5050880;28;20029;-79
2024/01/21 01:45:53;;;;;;;5.80;2.60;;;;;;;-142.57;59.88;55296.94;5050873;28;20037;-78
2024/01/21 01:48:20;;;;;;;7.57;2.55;;;;;;;-142.57;58.84;55298.97;5050830;28;20033;-80
2024/01/21 01:50:46;;;;;;;3.92;2.28;;;;;;;-142.57;58.80;55305.03;5052722;28;20097;-78
2024/01/21 01:53:12;;;;;;;3.97;2.25;;;;;;;-142.57;59.24;55276.75;5052398;28;20041;-79
2024/01/21 01:55:37;;;;;;;4.07;2.00;;;;;;;-142.57;59.38;55284.81;5052492;28;20389;-79
2024/01/21 01:58:03;;;;;;;6.82;2.03;;;;;;;-142.57;59.57;55258.56;5052194;28;20039;-79
2024/01/21 02:00:29;;;;;;;4.20;2.15;;;;;;;-142.57;61.36;55254.50;5052407;28;20050;-78
2024/01/21 02:02:55;;;;;;;3.60;2.03;;;;;;;-142.57;62.17;55248.47;5052419;28;20112;-77
2024/01/21 02:05:20;;;;;;;4.45;1.67;;;;;;;-142.57;61.90;55268.66;5052252;28;20036;-78
2024/01/21 02:07:47;;;;;;;4.47;1.85;;;;;;;-142.57;61.43;55248.47;5051182;28;20125;-79
2024/01/21 02:10:12;;;;;;;3.35;1.60;;;;;;;-142.57;62.01;55236.34;5052701;28;20039;-79
2024/01/21 02:12:42;;;;;;;4.97;1.75;;;;;;;-142.57;62.26;55228.25;5052245;28;20041;-80
2024/01/21 02:15:08;;;;;;;3.13;1.55;;;;;;;-142.57;63.38;55224.22;5052531;28;20037;-79
2024/01/21 02:17:34;;;;;;;8.63;1.75;;;;;;;-142.57;64.68;55232.28;5052073;28;20068;-79
2024/01/21 02:19:59;;;;;;;3.60;1.80;;;;;;;-142.57;64.32;55216.13;5052618;28;20125;-80
2024/01/21 02:22:26;;;;;;;2.67;1.42;;;;;;;-142.57;65.50;55197.94;5051919;28;20044;-78
2024/01/21 02:24:51;;;;;;;3.90;1.80;;;;;;;-142.57;64.79;55208.06;5050491;28;20114;-79
2024/01/21 02:27:17;;;;;;;2.75;1.40;;;;;;;-142.57;64.81;55238.34;5052158;28;20116;-78
2024/01/21 02:29:42;;;;;;;1.75;1.20;;;;;;;-142.57;64.48;55244.41;5052206;28;20041;-78
2024/01/21 02:32:08;;;;;;;2.90;1.40;;;;;;;-142.57;64.83;55191.88;5051868;28;20122;-79
2024/01/21 02:34:34;;;;;;;4.72;2.58;;;;;;;-142.57;65.73;55238.34;5051434;28;20500;-78
2024/01/21 02:36:59;;;;;;;2.60;1.70;;;;;;;-142.57;65.08;55214.09;5051869;28;20033;-79
2024/01/21 02:39:25;;;;;;;8.40;2.22;;;;;;;-142.57;66.16;55193.91;5051391;28;20148;-78
2024/01/21 02:41:50;;;;;;;4.00;1.92;;;;;;;-142.57;67.96;55216.13;5053902;28;20126;-81
2024/01/21 02:44:15;;;;;;;4.68;2.28;;;;;;;-142.57;67.10;55248.47;5054948;28;20539;-78
2024/01/21 02:46:43;;;;;;;3.85;1.73;;;;;;;-142.57;67.31;55199.97;5055111;28;20037;-78
2024/01/21 02:49:09;;;;;;;4.85;1.80;;;;;;;-142.57;68.52;55202.00;5036989;28;20044;-78
2024/01/21 02:51:36;;;;;;;3.10;1.65;;;;;;;-142.57;71.34;55187.84;5055095;28;20508;-80
2024/01/21 02:54:02;;;;;;;5.32;1.90;;;;;;;-142.57;70.88;55224.22;5054857;28;20029;-77
2024/01/21 02:56:27;;;;;;;5.45;2.03;;;;;;;-142.57;70.41;55210.06;5054946;28;20381;-79
2024/01/21 02:58:53;;;;;;;3.50;1.70;;;;;;;-142.57;70.14;55220.16;5055181;28;20102;-79
2024/01/21 03:01:19;;;;;;;3.47;2.00;;;;;;;-142.57;69.03;55264.63;5055283;28;20492;-80
2024/01/21 03:03:45;;;;;;;3.90;1.83;;;;;;;-142.57;69.09;55262.59;5054741;28;20105;-78
2024/01/21 03:06:11;;;;;;;4.78;1.83;;;;;;;-142.57;69.26;55232.28;5054652;28;20033;-78
2024/01/21 03:08:37;;;;;;;5.65;2.13;;;;;;;-142.57;70.13;55244.41;5054920;28;20037;-79
2024/01/21 03:11:03;;;;;;;6.40;2.03;;;;;;;-142.57;70.81;55212.09;5055382;28;20115;-79
2024/01/21 03:13:28;;;;;;;6.22;2.20;;;;;;;-142.57;70.11;55248.47;5053860;28;20190;-80
2024/01/21 03:15:54;;;;;;;8.07;2.30;;;;;;;-142.57;69.89;55264.63;5054555;28;20474;-77
2024/01/21 03:18:20;;;;;;;4.47;2.25;;;;;;;-142.57;69.58;55248.47;5065293;28;20025;-77
2024/01/21 03:20:47;;;;;;;7.35;2.30;;;;;;;-142.57;71.04;55248.47;5078033;28;20053;-79
2024/01/21 03:23:13;;;;;;;4.88;1.83;;;;;;;-142.57;72.53;55224.22;5074455;28;20044;-78
2024/01/21 03:25:38;;;;;;;3.70;1.98;;;;;;;-142.57;72.19;55240.38;5054107;28;20386;-81
2024/01/21 03:28:05;;;;;;;4.80;1.95;;;;;;;-142.57;71.55;55228.25;5054503;28;20044;-78
2024/01/21 03:30:30;;;;;;;4.88;2.10;;;;;;;-142.57;71.61;55189.88;5061515;28;20037;-78
2024/01/21 03:32:56;;;;;;;4.50;1.58;;;;;;;-142.57;71.68;55224.22;5058941;28;20064;-79
2024/01/21 03:35:21;;;;;;;2.75;1.40;;;;;;;-142.57;70.13;55191.88;5062085;28;20113;-77
2024/01/21 03:37:47;;;;;;;2.55;1.40;;;;;;;-142.57;69.08;55173.72;5066980;28;20044;-77
2024/01/21 03:40:13;;;;;;;3.38;1.73;;;;;;;-142.57;68.01;55195.94;5073107;28;20072;-78
2024/01/21 03:42:38;;;;;;;4.68;1.50;;;;;;;-142.57;68.45;55238.34;5076703;28;20013;-78
2024/01/21 03:45:05;;;;;;;1.88;1.25;;;;;;;-142.57;69.30;55173.72;5071694;28;20029;-79
2024/01/21 03:47:30;;;;;;;2.35;1.27;;;;;;;-142.57;68.34;55216.13;5068309;28;20029;-79
2024/01/21 03:49:56;;;;;;;2.58;1.30;;;;;;;-142.57;68.45;55210.06;5055254;28;20112;-78
2024/01/21 03:52:23;;;;;;;2.63;1.48;;;;;;;-142.57;71.52;55191.88;5052843;28;20033;-80
2024/01/21 03:54:49;;;;;;;2.08;1.27;;;;;;;-142.57;70.80;55212.09;5053944;28;20033;-78
2024/01/21 03:57:14;;;;;;;2.60;1.45;;;;;;;-142.57;71.46;55187.84;5053788;28;20040;-77
2024/01/21 03:59:40;;;;;;;5.70;1.63;;;;;;;-142.57;72.39;55191.88;5053952;28;20462;-78
2024/01/21 04:02:05;;;;;;;4.45;2.40;;;;;;;-142.57;72.95;55121.19;5053061;28;20037;-79
2024/01/21 04:04:31;;;;;;;8.18;2.55;;;;;;;-142.57;73.34;55147.44;5052841;28;20378;-77
2024/01/21 04:06:56;;;;;;;5.70;2.65;;;;;;;-142.57;73.83;55127.25;5053367;28;20475;-79
2024/01/21 04:09:23;;;;;;;4.85;2.28;;;;;;;-142.57;77.87;55082.78;5053350;28;20124;-80
2024/01/21 04:11:51;;;;;;;4.43;2.40;;;;;;;-142.57;80.34;55115.13;5053203;28;20041;-78
2024/01/21 04:14:17;;;;;;;5.00;2.10;;;;;;;-142.57;81.27;55111.06;5053171;28;20041;-79
2024/01/21 04:16:42;;;;;;;4.10;2.08;;;;;;;-142.57;81.33;55123.19;5053385;28;20029;-79
2024/01/21 04:19:09;;;;;;;3.55;2.00;;;;;;;-142.57;81.28;55151.47;5053075;28;20033;-79
2024/01/21 04:21:34;;;;;;;5.07;2.30;;;;;;;-142.57;79.95;55183.81;5053044;28;20045;-78
2024/01/21 04:24:03;;;;;;;4.75;2.10;;;;;;;-142.57;79.66;55119.16;5053128;28;20047;-79
2024/01/21 04:26:30;;;;;;;5.30;2.42;;;;;;;-142.57;81.53;55167.66;5053483;28;20021;-79
2024/01/21 04:28:55;;;;;;;3.83;2.17;;;;;;;-142.57;81.67;55151.47;5051924;28;20497;-79
2024/01/21 04:31:21;;;;;;;5.50;2.00;;;;;;;-142.57;80.89;55177.75;5053175;28;20047;-79
2024/01/21 04:33:46;;;;;;;5.78;2.35;;;;;;;-142.57;80.52;55167.66;5051647;28;20091;-78
2024/01/21 04:36:19;;;;;;;7.30;1.88;;;;;;;-142.57;80.07;55208.06;5053245;28;20083;-81
2024/01/21 04:38:45;;;;;;;6.35;2.20;;;;;;;-142.57;80.64;55117.13;5051564;28;20052;-79
2024/01/21 04:41:14;;;;;;;3.97;1.83;;;;;;;-142.57;81.52;55171.69;5052879;28;20108;-77
2024/01/21 04:43:40;;;;;;;4.50;1.90;;;;;;;-142.57;82.84;55139.38;5052757;28;20048;-79
2024/01/21 04:46:06;;;;;;;3.40;1.40;;;;;;;-142.57;83.54;55155.53;5052624;28;20051;-77
2024/01/21 04:48:33;;;;;;;4.68;1.83;;;;;;;-142.57;80.85;55127.25;5052623;28;20048;-80
2024/01/21 04:50:59;;;;;;;4.28;1.67;;;;;;;-142.57;78.83;55145.41;5052565;28;20466;-78
2024/01/21 04:53:24;;;;;;;2.92;1.33;;;;;;;-142.57;77.60;55147.44;5052982;28;20036;-78
2024/01/21 04:55:50;;;;;;;3.47;1.42;;;;;;;-142.57;76.43;55135.31;5052797;28;20037;-79
2024/01/21 04:58:15;;;;;;;6.43;1.50;;;;;;;-142.57;76.50;55149.47;5052375;28;20059;-78
2024/01/21 05:00:41;;;;;;;2.92;1.60;;;;;;;-142.57;73.34;55171.69;5052524;28;20071;-79
2024/01/21 05:03:06;;;;;;;1.35;1.02;;;;;;;-142.57;73.71;55208.06;5052728;28;20776;-80
2024/01/21 05:05:32;;;;;;;2.63;1.35;;;;;;;-142.57;74.15;55163.59;5052233;28;20437;-79
2024/01/21 05:07:58;;;;;;;3.75;1.50;;;;;;;-142.57;74.69;55167.66;5052477;28;20448;-78
2024/01/21 05:10:24;;;;;;;3.92;1.42;;;;;;;-142.57;74.22;55151.47;5052200;28;20045;-79
2024/01/21 05:12:49;;;;;;;3.17;1.60;;;;;;;-142.57;74.38;55151.47;5052340;28;20474;-79
2024/01/21 05:15:15;;;;;;;5.53;1.63;;;;;;;-142.57;74.62;55159.56;5052412;28;20048;-78
2024/01/21 05:17:40;;;;;;;2.22;1.40;;;;;;;-142.57;75.17;55179.75;5052459;28;20122;-79
2024/01/21 05:20:08;;;;;;;2.60;1.45;;;;;;;-142.57;73.44;55175.72;5052247;28;20044;-78
2024/01/21 05:22:34;;;;;;;2.75;1.60;;;;;;;-142.57;72.26;55181.78;5052271;28;20045;-79
2024/01/21 05:25:00;;;;;;;3.63;1.90;;;;;;;-142.57;71.44;55208.06;5052205;28;20124;-78
2024/01/21 05:27:25;;;;;;;5.03;1.73;;;;;;;-142.57;70.86;55169.66;5052101;28;20483;-80
2024/01/21 05:29:51;;;;;;;2.50;1.40;;;;;;;-142.57;70.60;55171.69;5052250;28;20466;-79
2024/01/21 05:32:16;;;;;;;5.47;1.55;;;;;;;-142.57;69.75;55181.78;5051980;28;20045;-77
2024/01/21 05:34:42;;;;;;;5.60;1.80;;;;;;;-142.57;69.64;55191.88;5052287;28;20033;-79
2024/01/21 05:37:07;;;;;;;2.55;1.25;;;;;;;-142.57;69.36;55191.88;5052276;28;20025;-79
2024/01/21 05:39:33;;;;;;;2.58;1.45;;;;;;;-142.57;69.66;55187.84;5052417;28;20064;-79
2024/01/21 05:42:07;;;;;;;4.22;1.48;;;;;;;-142.57;69.63;55185.81;5052125;28;20106;-78
2024/01/21 05:44:33;;;;;;;3.60;1.77;;;;;;;-142.57;71.55;55183.81;5052152;28;20558;-77
2024/01/21 05:46:59;;;;;;;4.00;1.90;;;;;;;-142.57;71.10;55173.72;5050801;28;20036;-79
2024/01/21 05:49:25;;;;;;;4.75;1.70;;;;;;;-142.57;71.39;55175.72;5052030;28;20049;-80
2024/01/21 05:51:51;;;;;;;2.80;1.52;;;;;;;-142.57;72.96;55167.66;5051907;28;20048;-78
2024/01/21 05:54:18;;;;;;;3.88;1.75;;;;;;;-142.57;73.54;55169.66;5052033;28;20041;-78
2024/01/21 05:56:43;;;;;;;3.33;1.77;;;;;;;-142.57;73.12;55175.72;5034126;28;20044;-78
2024/01/21 05:59:09;;;;;;;5.32;2.30;;;;;;;-142.57;73.45;55175.72;5052025;28;20037;-78
2024/01/21 06:01:34;;;;;;;4.05;2.53;;;;;;;-142.57;73.22;55171.69;5039974;28;20120;-79
2024/01/21 06:04:00;;;;;;;7.90;2.70;;;;;;;-142.57;72.47;55179.75;5030346;28;20033;-79
2024/01/21 06:06:25;;;;;;;7.75;2.92;;;;;;;-142.57;72.04;55183.81;5036136;28;20477;-79
2024/01/21 06:08:51;;;;;;;7.07;2.67;;;;;;;-142.57;70.89;55218.16;5035428;28;20039;-79
2024/01/21 06:11:16;;;;;;;4.05;2.17;;;;;;;-142.57;71.17;55179.75;5033095;28;20034;-80
2024/01/21 06:13:45;;;;;;;7.25;2.17;;;;;;;-142.57;71.80;55179.75;5038524;28;20025;-81
2024/01/21 06:16:16;;;;;;;10.85;1.98;;;;;;;-142.57;71.83;55169.66;5033807;28;20034;-81
2024/01/21 06:18:41;;;;;;;5.07;2.42;;;;;;;-142.57;72.05;55165.63;5037836;28;20369;-81
2024/01/21 06:21:07;;;;;;;8.00;2.20;;;;;;;-142.57;72.67;55151.47;5038138;28;20040;-81
2024/01/21 06:23:32;;;;;;;14.68;2.67;;;;;;;-142.57;70.82;55143.41;5035466;28;20481;-79
2024/01/21 06:25:58;;;;;;;5.40;2.25;;;;;;;-142.57;70.28;55191.88;5035628;28;20150;-80
2024/01/21 06:28:23;;;;;;;10.23;4.20;;;;;;;-142.57;68.52;55151.47;5034496;28;20049;-80
2024/01/21 06:30:49;;;;;;;11.98;4.57;;;;;;;-142.57;67.30;55175.72;5036117;28;20037;-81
2024/01/21 06:33:14;;;;;;;9.13;3.60;;;;;;;-142.57;67.00;55195.94;5042981;28;20035;-77
2024/01/21 06:35:40;;;;;;;10.27;4.00;;;;;;;-142.57;66.29;55187.84;5027129;28;20389;-82
2024/01/21 06:38:05;;;;;;;10.05;3.25;;;;;;;-142.57;65.65;55175.72;5046931;28;20107;-81
2024/01/21 06:40:31;;;;;;;11.90;4.28;;;;;;;-142.57;65.89;55173.72;5049704;28;20034;-80
2024/01/21 06:42:56;;;;;;;12.88;4.60;;;;;;;-142.57;65.90;55191.88;5043790;28;20486;-79
2024/01/21 06:45:23;;;;;;;13.43;3.65;;;;;;;-142.57;65.43;55179.75;5052303;28;20045;-81
2024/01/21 06:47:48;;;;;;;15.75;3.85;;;;;;;-142.57;65.72;55191.88;5050093;28;20390;-80
2024/01/21 06:50:14;;;;;;;8.45;3.45;;;;;;;-142.57;66.22;55169.66;5038579;28;20032;-79
2024/01/21 06:52:40;;;;;;;10.70;3.70;;;;;;;-142.57;67.54;55183.81;5053871;28;20381;-83
2024/01/21 06:55:06;;;;;;;7.43;3.72;;;;;;;-142.57;66.98;55175.72;5060297;28;20060;-80
2024/01/21 06:57:32;;;;;;;11.50;3.47;;;;;;;-142.57;68.26;55214.09;5044905;28;20044;-81
2024/01/21 06:59:58;;;;;;;6.38;2.80;;;;;;;-142.57;67.80;55323.22;5050166;28;20033;-80
2024/01/21 07:02:23;;;;;;;4.95;2.38;;;;;;;-142.57;62.40;55317.16;5034810;28;20056;-83
2024/01/21 07:04:49;;;;;;;12.80;3.15;;;;;;;-142.57;62.54;55361.59;5034355;28;20095;-80
2024/01/21 07:07:14;;;;;;;15.02;3.58;;;;;;;-142.57;59.23;55371.69;5047271;28;20092;-81
2024/01/21 07:09:41;;;;;;;6.95;3.50;;;;;;;-142.57;60.64;55422.22;5053180;28;20037;-79
2024/01/21 07:12:08;;;;;;;9.43;3.60;;;;;;;-142.57;56.81;55440.38;5053874;28;20037;-79
2024/01/21 07:14:34;;;;;;;8.57;4.05;;;;;;;-142.57;55.76;55531.31;5053968;28;20390;-79
2024/01/21 07:17:03;;;;;;;14.43;4.18;;;;;;;-142.57;53.51;55579.81;5053931;28;20043;-78
2024/01/21 07:19:29;;;;;;;9.48;4.07;;;;;;;-142.57;51.19;55563.63;5054297;28;20054;-79
2024/01/21 07:21:54;;;;;;;7.70;3.45;;;;;;;-142.57;51.99;55600.00;5054186;28;20044;-81
2024/01/21 07:24:20;;;;;;;6.22;3.15;;;;;;;-142.57;48.49;55680.81;5054147;28;20029;-78
2024/01/21 07:26:46;;;;;;;4.07;2.30;;;;;;;-142.57;46.04;55733.34;5054338;28;20036;-77
2024/01/21 07:29:13;;;;;;;4.25;2.88;;;;;;;-142.57;48.83;55729.31;5054063;28;20387;-84
2024/01/21 07:31:39;;;;;;;3.35;2.05;;;;;;;-142.57;45.13;55735.38;5052491;28;20036;-78
2024/01/21 07:34:09;;;;;;;3.55;1.98;;;;;;;-142.57;47.62;55802.06;5054019;28;20037;-79
2024/01/21 07:36:35;;;;;;;3.92;1.88;;;;;;;-142.57;47.01;55897.03;5054134;28;20025;-78
2024/01/21 07:39:01;;;;;;;4.22;1.90;;;;;;;-142.57;43.14;55866.72;5052795;28;20124;-82
2024/01/21 07:41:27;;;;;;;3.58;1.42;;;;;;;-142.57;41.90;55961.69;5053856;28;20017;-80
2024/01/21 07:43:52;;;;;;;2.67;1.40;;;;;;;-142.57;42.88;55771.75;5053686;28;20125;-78
2024/01/21 07:46:18;;;;;;;2.65;1.48;;;;;;;-142.57;45.06;55688.91;5054189;28;20490;-87
2024/01/21 07:48:43;;;;;;;2.90;1.90;;;;;;;-142.57;47.75;55612.13;5053529;28;20037;-82
2024/01/21 07:51:09;;;;;;;6.30;2.65;;;;;;;-142.57;47.11;55697.00;5052640;28;20098;-83
2024/01/21 07:53:34;;;;;;;8.50;2.83;;;;;;;-142.57;45.12;55810.13;5054014;28;20037;-84
2024/01/21 07:56:00;;;;;;;11.60;2.72;;;;;;;-142.57;46.01;55674.75;5053843;28;20489;-83
2024/01/21 07:58:25;;;;;;;4.50;2.78;;;;;;;-142.57;47.21;55676.78;5053647;28;20103;-83
2024/01/21 08:00:51;;;;;;;7.70;2.47;;;;;;;-142.57;48.42;55628.28;5053645;28;20076;-85
2024/01/21 08:03:17;;;;;;;10.15;3.20;;;;;;;-142.57;47.24;55692.94;5053929;28;20508;-84
2024/01/21 08:05:43;;;;;;;11.52;2.92;;;;;;;-142.57;46.36;55697.00;5053569;28;20041;-83
2024/01/21 08:08:08;;;;;;;5.78;2.55;;;;;;;-142.57;47.04;55697.00;5053587;28;20037;-84
2024/01/21 08:10:34;;;;;;;9.45;2.70;;;;;;;-142.57;44.71;55858.63;5053460;28;20028;-84
2024/01/21 08:13:00;;;;;;;5.85;3.03;;;;;;;-142.57;45.43;55757.59;5053662;28;20040;-83
2024/01/21 08:15:25;;;;;;;8.00;2.80;;;;;;;-142.57;47.28;55597.97;5053463;28;20041;-83
2024/01/21 08:17:50;;;;;;;9.27;3.47;;;;;;;-142.57;48.04;55678.81;5053341;28;20110;-83
2024/01/21 08:20:16;;;;;;;11.43;3.05;;;;;;;-142.57;48.38;55604.03;5052584;28;20146;-83
2024/01/21 08:22:43;;;;;;;5.10;3.00;;;;;;;-142.57;49.34;55608.09;5053229;28;20109;-83
2024/01/21 08:25:09;;;;;;;10.57;4.18;;;;;;;-142.57;51.42;55494.94;5053403;28;20401;-86
2024/01/21 08:27:34;;;;;;;7.65;4.40;;;;;;;-142.57;52.29;55498.97;5052117;28;20045;-83
2024/01/21 08:30:00;;;;;;;8.98;3.97;;;;;;;-142.57;51.94;55486.84;5052316;28;20083;-82
2024/01/21 08:32:25;;;;;;;7.35;4.15;;;;;;;-142.57;53.22;55476.75;5053218;28;20048;-83
2024/01/21 08:34:51;;;;;;;7.65;3.70;;;;;;;-142.57;55.45;55418.16;5054438;28;20025;-84
2024/01/21 08:37:16;;;;;;;14.50;4.38;;;;;;;-142.57;55.53;55434.31;5053439;28;20071;-84
2024/01/21 08:39:43;;;;;;;17.08;5.18;;;;;;;-142.57;57.35;55442.41;5053230;28;20029;-83
2024/01/21 08:42:08;;;;;;;9.27;5.10;;;;;;;-142.57;58.87;55450.50;5053333;28;20036;-82
2024/01/21 08:44:34;;;;;;;9.57;5.30;;;;;;;-142.57;59.06;55410.09;5052838;28;20049;-84
2024/01/21 08:46:59;;;;;;;9.10;5.47;;;;;;;-142.57;60.13;55438.38;5053270;28;20037;-83
2024/01/21 08:49:26;;;;;;;14.50;5.03;;;;;;;-142.57;59.00;55470.69;5053212;28;20037;-84
2024/01/21 08:51:51;;;;;;;10.93;5.10;;;;;;;-142.57;59.40;55450.50;5052854;28;20118;-84
2024/01/21 08:54:17;;;;;;;9.65;5.47;;;;;;;-142.57;60.50;55434.31;5053347;28;20425;-83
2024/01/21 08:56:42;;;;;;;12.20;6.50;;;;;;;-142.57;60.02;55466.66;5053070;28;20052;-84
2024/01/21 08:59:09;;;;;;;12.63;6.82;;;;;;;-142.57;62.41;55406.03;5053072;28;20064;-83
2024/01/21 09:01:35;;;;;;;12.93;6.50;;;;;;;-142.57;62.93;55420.19;5052617;28;20124;-82
2024/01/21 09:04:00;;;;;;;15.73;6.05;;;;;;;-142.57;63.22;55486.84;5052666;28;20500;-83
2024/01/21 09:06:26;;;;;;;10.00;5.97;;;;;;;-142.57;62.39;55482.81;5052768;28;20029;-85
2024/01/21 09:08:53;;;;;;;16.42;7.47;;;;;;;-142.57;62.64;55450.50;5053260;28;20021;-83
2024/01/21 09:11:20;;;;;;;14.18;7.13;;;;;;;-142.57;62.68;55466.66;5053151;28;20420;-81
2024/01/21 09:13:46;;;;;;;18.17;7.18;;;;;;;-142.57;63.60;55490.91;5053233;28;20440;-85
2024/01/21 09:16:19;;;;;;;14.82;6.65;;;;;;;-142.57;64.23;55486.84;5053538;28;20045;-84
2024/01/21 09:18:46;;;;;;;15.07;6.70;;;;;;;-142.57;63.43;55488.88;5053252;28;20048;-83
2024/01/21 09:21:12;;;;;;;14.07;7.55;;;;;;;-142.57;64.49;55511.09;5052634;28;20033;-83
2024/01/21 09:23:37;;;;;;;19.40;8.05;;;;;;;-142.57;66.09;55498.97;5053286;28;20045;-83
2024/01/21 09:26:03;;;;;;;14.23;8.15;;;;;;;-142.57;64.92;55470.69;5054000;28;20035;-81
2024/01/21 09:28:29;;;;;;;18.42;8.73;;;;;;;-142.57;64.00;55490.91;5054710;28;20475;-89
2024/01/21 09:30:54;;;;;;;19.98;9.55;;;;;;;-142.57;64.81;55486.84;5054097;28;20053;-86
2024/01/21 09:33:23;;;;;;;16.63;9.25;;;;;;;-142.57;65.46;55460.59;5053181;28;20375;-82
2024/01/21 09:35:50;;;;;;;17.30;9.60;;;;;;;-142.57;65.48;55448.47;5053127;28;20558;-84
2024/01/21 09:38:18;;;;;;;22.90;9.43;;;;;;;-142.57;65.33;55492.91;5052472;28;20060;-83
2024/01/21 09:40:51;;;;;;;15.52;8.80;;;;;;;-142.57;65.07;55492.91;5052229;28;20433;-82
2024/01/21 09:43:16;;;;;;;19.15;9.35;;;;;;;-142.57;64.10;55535.34;5052925;28;20082;-86
2024/01/21 09:45:43;;;;;;;17.52;8.63;;;;;;;-142.57;64.48;55496.97;5051237;28;20048;-85
2024/01/21 09:48:10;;;;;;;15.25;8.40;;;;;;;-142.57;63.73;55515.16;5053382;28;20029;-82
2024/01/21 09:50:37;;;;;;;18.30;8.95;;;;;;;-142.57;63.05;55559.59;5055057;28;20073;-86
2024/01/21 09:53:04;;;;;;;15.50;8.93;;;;;;;-142.57;61.85;55555.56;5057994;28;20064;-86
2024/01/21 09:55:29;;;;;;;22.13;8.98;;;;;;;-142.57;62.05;55537.38;5058095;28;20535;-88
2024/01/21 09:57:58;;;;;;;15.45;9.02;;;;;;;-142.57;60.82;55565.66;5057661;28;20092;-86
2024/01/21 10:00:25;;;;;;;18.13;8.90;;;;;;;-142.57;60.83;55551.50;5060595;28;20041;-86
2024/01/21 10:02:54;;;;;;;18.45;8.27;;;;;;;-142.57;59.71;55551.50;5054806;28;20512;-85
2024/01/21 10:05:19;;;;;;;17.30;7.90;;;;;;;-142.57;59.69;55517.16;5056043;28;20075;-82
2024/01/21 10:07:46;;;;;;;18.52;7.70;;;;;;;-142.57;61.55;55559.59;5053140;28;20100;-86
2024/01/21 10:10:12;;;;;;;21.30;8.75;;;;;;;-142.57;62.33;55604.03;5041510;28;20442;-89
2024/01/21 10:12:38;;;;;;;15.90;8.00;;;;;;;-142.57;61.58;55608.09;5042615;28;20075;-86
2024/01/21 10:15:03;;;;;;;14.35;8.05;;;;;;;-142.57;60.17;55589.91;5045678;28;20135;-83
2024/01/21 10:17:29;;;;;;;21.50;8.02;;;;;;;-142.57;59.26;55589.91;5040064;28;20037;-85
2024/01/21 10:19:54;;;;;;;18.30;7.85;;;;;;;-142.57;59.29;55608.09;5049928;28;20021;-83
2024/01/21 10:22:25;;;;;;;12.98;7.03;;;;;;;-142.57;59.15;55626.28;5046734;28;20044;-87
2024/01/21 10:24:50;;;;;;;17.85;7.90;;;;;;;-142.57;58.53;55608.09;5048247;28;20060;-82
2024/01/21 10:27:17;;;;;;;14.77;7.90;;;;;;;-142.57;58.79;55644.47;5040581;28;20029;-84
2024/01/21 10:29:45;;;;;;;14.02;8.18;;;;;;;-142.57;59.12;55630.31;5049133;28;20490;-81
2024/01/21 10:32:13;;;;;;;19.50;6.95;;;;;;;-142.57;59.35;55636.38;5049943;28;20421;-83
2024/01/21 10:34:40;;;;;;;13.30;7.20;;;;;;;-142.57;58.54;55620.22;5054992;28;20130;-79
2024/01/21 10:37:07;;;;;;;14.90;6.95;;;;;;;-142.57;58.66;55670.72;5042431;28;20120;-81
2024/01/21 10:39:35;;;;;;;22.40;10.18;;;;;;;-142.57;57.64;55626.28;5049720;28;20038;-80
2024/01/21 10:42:01;;;;;;;18.23;9.13;;;;;;;-142.57;57.71;55668.69;5047083;28;20140;-81
2024/01/21 10:44:27;;;;;;;17.65;7.25;;;;;;;-142.57;55.68;55684.88;5053532;28;20418;-85
2024/01/21 10:46:54;;;;;;;16.80;6.50;;;;;;;-142.57;56.21;55656.56;5039690;28;20049;-83
2024/01/21 10:49:20;;;;;;;14.00;6.78;;;;;;;-142.57;54.86;55678.81;5041506;28;20029;-83
2024/01/21 10:51:47;;;;;;;14.13;7.95;;;;;;;-142.57;55.37;55682.84;5036697;28;20430;-83
2024/01/21 10:54:15;;;;;;;15.10;7.47;;;;;;;-142.57;55.06;55688.91;5040000;28;20044;-80
2024/01/21 10:56:42;;;;;;;14.88;8.20;;;;;;;-142.57;55.38;55644.47;5054939;28;20485;-81
2024/01/21 10:59:12;;;;;;;14.77;8.15;;;;;;;-142.57;55.66;55668.69;5042448;28;20148;-79
2024/01/21 11:01:42;;;;;;;31.25;8.25;;;;;;;-142.57;57.19;55711.13;5043942;28;20102;-83
2024/01/21 11:04:12;;;;;;;14.30;6.75;;;;;;;-142.57;55.60;55717.19;5054553;28;20482;-81
2024/01/21 11:06:44;;;;;;;17.52;6.60;;;;;;;-142.57;55.00;55777.81;5055460;28;20448;-84
2024/01/21 11:09:10;;;;;;;17.48;8.43;;;;;;;-142.57;54.47;55785.91;5052229;28;20083;-81